Latest Weather Observations for Julia Creek

IDQ60801

Issued at 10:42 am EST Tuesday 14 July 2020 (issued every 10 minutes, with the page automatically refreshed every 10 minutes)

About weather observations | Map of weather stations | Latest weather observations for QLD | Other Formats
Station Details ID: 029058 Name: JULIA CREEK AIRPORT Lat: -20.67 Lon: 141.72 Height: 122.5 m
Data from the previous 72 hours. | See also: Recent months at Julia Creek
Date/Time
EST
Temp
°C
App
Temp
°C
Dew
Point
°C
Rel
Hum
%
Delta-T
°C
Wind Press
QNH
hPa
Press
MSL
hPa
Rain since
9am
mm
Dir  Spd
km/h
Gust
km/h
Spd
kts
Gust
kts
14/10:30am 17.5 9.3 0.2 31 7.5 ESE 33 43 18 23 1023.1 1022.8 0.0
14/10:00am 15.9 7.7 0.1 34 6.8 ESE 33 43 18 23 1023.4 1023.1 0.0
14/09:30am 14.8 6.5 -0.5 35 6.4 ESE 33 44 18 24 1023.2 1022.9 0.0
14/09:00am 12.8 4.6 -0.8 39 5.5 ESE 32 41 17 22 1023.4 1023.1 0.0
14/08:30am 10.0 4.2 -1.4 45 4.5 ESE 19 26 10 14 1023.1 1022.8 0.0
14/08:00am 6.9 1.8 -2.3 52 3.4 SE 15 20 8 11 1022.7 1022.4 0.0
14/07:30am 3.0 -2.4 -4.7 57 2.5 SE 15 17 8 9 1022.5 1022.2 0.0
14/07:00am 2.4 -2.3 -5.0 58 2.4 SE 11 13 6 7 1022.1 1021.9 0.0
14/06:30am 3.0 -1.3 -4.9 56 2.6 SE 9 11 5 6 1021.8 1021.6 0.0
14/06:00am 4.1 -0.9 -4.4 54 2.9 SE 13 17 7 9 1021.4 1021.2 0.0
14/05:30am 4.9 -0.5 -4.1 52 3.1 SE 15 17 8 9 1021.0 1020.8 0.0
14/05:00am 5.9 0.2 -3.7 50 3.4 SE 17 19 9 10 1021.3 1021.1 0.0
14/04:30am 6.8 1.1 -3.7 47 3.7 SE 17 20 9 11 1021.3 1021.1 0.0
14/04:00am 7.5 1.4 -3.6 45 4.0 SE 19 22 10 12 1021.3 1021.1 0.0
14/03:30am 8.0 1.8 -3.5 44 4.2 SE 20 24 11 13 1021.2 1021.0 0.0
14/03:00am 6.3 0.3 -3.3 50 3.4 SSE 19 22 10 12 1021.2 1021.0 0.0
14/02:30am 4.5 -0.6 -5.5 48 3.3 SSE 13 17 7 9 1021.4 1021.2 0.0
14/02:00am 5.9 0.4 -5.4 44 3.8 SSE 15 17 8 9 1021.3 1021.1 0.0
14/01:30am 6.0 0.1 -5.6 43 3.9 SSE 17 19 9 10 1021.4 1021.2 0.0
14/01:00am 6.1 0.5 -6.1 41 4.0 SSE 15 17 8 9 1021.7 1021.5 0.0
14/12:30am 7.4 1.5 -5.6 39 4.5 SSE 17 20 9 11 1021.8 1021.6 0.0
14/12:00am 8.0 2.1 -6.1 36 4.8 SSE 17 19 9 10 1022.1 1021.9 0.0
 
Date/Time
EST
Temp
°C
App
Temp
°C
Dew
Point
°C
Rel
Hum
%
Delta-T
°C
Wind Press
QNH
hPa
Press
MSL
hPa
Rain since
9am
mm
Dir  Spd
km/h
Gust
km/h
Spd
kts
Gust
kts
13/11:30pm 9.0 2.7 -6.0 34 5.2 SSE 19 20 10 11 1021.9 1021.7 0.0
13/11:00pm 9.1 3.2 -5.5 35 5.1 SSE 17 20 9 11 1022.1 1021.9 0.0
13/10:30pm 8.4 2.1 -6.1 35 5.0 SE 19 20 10 11 1022.3 1022.1 0.0
13/10:00pm 8.8 3.3 -5.8 35 5.0 SE 15 17 8 9 1022.2 1022.0 0.0
13/09:30pm 8.8 4.0 -6.2 34 5.2 SE 11 15 6 8 1022.1 1021.9 0.0
13/09:00pm 10.2 4.3 -5.7 32 5.6 SE 17 19 9 10 1021.8 1021.6 0.0
13/08:30pm 11.1 5.6 -5.4 31 6.0 SE 15 19 8 10 1021.6 1021.4 0.0
13/08:00pm 12.1 6.2 -5.8 28 6.5 SE 17 17 9 9 1021.2 1021.0 0.0
13/07:30pm 13.7 7.5 -4.9 27 7.0 SE 19 20 10 11 1021.0 1020.8 0.0
13/07:00pm 14.6 8.7 -5.7 24 7.6 SE 17 19 9 10 1020.7 1020.5 0.0
13/06:30pm 17.3 11.0 -5.8 20 8.9 SSE 19 24 10 13 1020.4 1020.2 0.0
13/06:00pm 19.7 12.4 -6.0 17 10.1 SE 24 30 13 16 1020.2 1020.0 0.0
13/05:30pm 21.1 13.1 -5.7 16 10.7 SSE 28 37 15 20 1019.8 1019.6 0.0
13/05:00pm 21.7 13.3 -6.0 15 11.1 SSE 30 39 16 21 1019.5 1019.3 0.0
13/04:30pm 22.2 13.6 -4.0 17 11.0 SSE 32 43 17 23 1019.1 1018.9 0.0
13/04:00pm 22.4 14.6 -3.8 17 11.0 SE 28 41 15 22 1019.2 1019.0 0.0
13/03:30pm 22.5 13.9 -4.5 16 11.2 SE 32 39 17 21 1019.2 1019.0 0.0
13/03:00pm 22.0 13.5 -3.4 18 10.7 SE 32 41 17 22 1019.4 1019.2 0.0
13/02:43pm 22.8 15.0 -3.5 17 11.2 SE 28 46 15 25 1019.5 1019.3 0.0
13/02:30pm 22.3 14.5 -3.9 17 11.0 SE 28 39 15 21 1019.7 1019.5 0.0
13/02:00pm 21.3 13.9 -4.0 18 10.5 SE 26 37 14 20 1019.9 1019.7 0.0
13/01:30pm 21.0 13.3 -2.8 20 10.1 SE 28 43 15 23 1020.3 1020.1 0.0
13/01:00pm 20.3 12.4 -1.5 23 9.4 SE 30 37 16 20 1021.0 1020.8 0.0
13/12:30pm 19.9 12.0 -1.2 24 9.1 SSE 30 39 16 21 1021.7 1021.5 0.0
13/12:00pm 19.4 11.7 -0.1 27 8.6 SE 30 39 16 21 1022.3 1022.1 0.0
13/11:30am 18.8 11.7 1.3 31 7.9 SSE 28 37 15 20 1023.1 1022.8 0.0
13/11:00am 18.2 10.3 1.3 32 7.6 SE 32 39 17 21 1023.5 1023.2 0.0
13/10:30am 16.8 9.0 2.0 37 6.7 SE 32 41 17 22 1023.6 1023.3 0.0
13/10:00am 15.4 7.4 1.9 40 6.0 SE 33 43 18 23 1023.7 1023.4 0.0
13/09:30am 14.1 6.2 2.0 44 5.3 SE 33 46 18 25 1023.7 1023.4 0.0
13/09:00am 13.0 5.6 1.7 46 4.9 SE 30 39 16 21 1023.5 1023.2 0.0
13/08:30am 10.8 4.3 0.2 48 4.3 SSE 24 32 13 17 1023.1 1022.8 0.0
13/08:00am 8.8 2.9 -0.5 52 3.7 SSE 20 24 11 13 1022.8 1022.5 0.0
13/07:30am 7.7 1.8 -1.0 54 3.4 SSE 20 24 11 13 1022.6 1022.3 0.0
13/07:00am 7.3 1.6 -0.9 56 3.1 SSE 19 20 10 11 1022.2 1022.0 0.0
13/06:30am 6.8 1.8 -1.1 57 3.0 SSE 15 19 8 10 1021.5 1021.3 0.0
13/06:00am 6.6 1.6 -1.5 56 3.0 S 15 17 8 9 1021.2 1021.0 0.0
13/05:30am 6.9 1.8 -1.7 54 3.2 S 15 19 8 10 1020.7 1020.5 0.0
13/05:00am 7.6 2.2 -1.6 52 3.5 S 17 20 9 11 1020.4 1020.2 0.0
13/04:30am 7.9 2.1 -1.6 51 3.6 S 19 20 10 11 1020.4 1020.2 0.0
13/04:00am 8.0 2.2 -1.8 50 3.7 S 19 22 10 12 1020.5 1020.3 0.0
13/03:30am 7.6 2.1 -2.1 50 3.6 S 17 19 9 10 1020.4 1020.2 0.0
13/03:00am 8.6 2.8 -1.8 48 4.0 S 19 20 10 11 1020.5 1020.3 0.0
13/02:30am 8.7 2.8 -2.3 46 4.2 S 19 20 10 11 1020.7 1020.5 0.0
13/02:00am 8.7 2.6 -2.6 45 4.2 S 20 22 11 12 1020.9 1020.7 0.0
13/01:30am 8.8 3.2 -2.8 44 4.3 S 17 19 9 10 1021.1 1020.9 0.0
13/01:00am 9.3 3.4 -2.6 43 4.5 S 19 20 10 11 1021.1 1020.9 0.0
13/12:30am 10.1 4.5 -2.5 41 4.8 S 17 20 9 11 1021.0 1020.8 0.0
13/12:00am 11.6 5.7 -2.2 38 5.4 S 19 20 10 11 1020.9 1020.7 0.0
 
Date/Time
EST
Temp
°C
App
Temp
°C
Dew
Point
°C
Rel
Hum
%
Delta-T
°C
Wind Press
QNH
hPa
Press
MSL
hPa
Rain since
9am
mm
Dir  Spd
km/h
Gust
km/h
Spd
kts
Gust
kts
12/11:30pm 12.0 5.5 -2.2 37 5.6 S 22 26 12 14 1020.8 1020.6 0.0
12/11:00pm 9.2 3.5 -3.7 40 4.7 S 17 20 9 11 1020.8 1020.6 0.0
12/10:30pm 9.7 4.3 -4.6 36 5.2 S 15 19 8 10 1020.9 1020.7 0.0
12/10:00pm 11.8 6.1 -3.9 33 5.9 SSE 17 19 9 10 1020.6 1020.4 0.0
12/09:30pm 12.3 6.2 -3.9 32 6.1 SSE 19 20 10 11 1020.4 1020.2 0.0
12/09:00pm 11.6 5.8 -4.5 32 5.9 S 17 17 9 9 1020.2 1020.0 0.0
12/08:30pm 13.4 7.3 -3.8 30 6.6 SSW 19 20 10 11 1019.8 1019.6 0.0
12/08:00pm 13.4 7.7 -3.8 30 6.6 S 17 19 9 10 1019.4 1019.2 0.0
12/07:30pm 13.4 8.0 -4.2 29 6.7 S 15 17 8 9 1018.7 1018.5 0.0
12/07:00pm 15.8 10.1 -3.6 26 7.7 S 17 17 9 9 1018.4 1018.2 0.0
12/06:30pm 18.9 13.3 -3.3 22 9.1 S 17 20 9 11 1017.9 1017.6 0.0
12/06:00pm 21.0 14.8 -2.8 20 10.1 S 20 26 11 14 1017.7 1017.4 0.0
12/05:30pm 22.5 16.4 -2.2 19 10.7 S 20 26 11 14 1017.5 1017.2 0.0
12/05:00pm 23.2 17.1 -2.4 18 11.1 S 20 26 11 14 1017.3 1017.0 0.0
12/04:30pm 24.1 17.8 -0.9 19 11.3 SSE 22 32 12 17 1017.2 1016.9 0.0
12/04:00pm 24.0 18.1 -1.0 19 11.2 SSE 20 32 11 17 1017.4 1017.1 0.0
12/03:30pm 24.2 17.9 -0.9 19 11.3 S 22 32 12 17 1017.6 1017.3 0.0
12/03:00pm 24.3 18.3 -1.5 18 11.5 SSE 20 41 11 22 1017.8 1017.5 0.0
12/02:30pm 24.0 18.0 -1.8 18 11.4 SSE 20 32 11 17 1018.1 1017.9 0.0
12/02:00pm 23.6 17.3 -1.3 19 11.1 SSE 22 33 12 18 1018.3 1018.1 0.0
12/01:30pm 23.0 16.0 -0.5 21 10.6 SSE 26 35 14 19 1018.8 1018.6 0.0
12/01:00pm 22.4 15.9 0.3 23 10.0 S 24 33 13 18 1019.4 1019.2 0.0
12/12:30pm 21.6 14.7 0.2 24 9.7 SSE 26 37 14 20 1019.8 1019.6 0.0
12/12:00pm 21.2 14.0 1.0 26 9.2 SSE 28 35 15 19 1020.3 1020.1 0.0
12/11:30am 20.1 12.5 0.5 27 8.8 SSE 30 41 16 22 1020.6 1020.4 0.0
12/11:00am 19.6 12.5 1.1 29 8.3 SSE 28 35 15 19 1021.0 1020.8 0.0
12/10:30am 18.7 10.8 0.8 30 8.0 SSE 32 44 17 24 1021.3 1021.1 0.0
12/10:00am 18.1 10.1 0.7 31 7.7 SSE 32 43 17 23 1021.2 1021.0 0.0
12/09:30am 17.6 9.5 0.7 32 7.5 SSE 33 43 18 23 1021.0 1020.8 0.0
12/09:00am 16.5 8.6 1.0 35 6.8 S 32 44 17 24 1020.6 1020.4 0.0
12/08:30am 15.0 7.9 1.2 39 6.0 S 28 35 15 19 1020.4 1020.2 0.0
12/08:00am 13.7 8.1 1.4 43 5.3 S 20 26 11 14 1020.1 1019.9 0.0
12/07:30am 13.0 7.4 1.4 45 5.0 S 20 26 11 14 1019.5 1019.3 0.0
12/07:00am 13.2 7.6 1.5 45 5.0 S 20 26 11 14 1019.3 1019.1 0.0
12/06:30am 13.8 7.9 1.5 43 5.3 S 22 28 12 15 1018.8 1018.6 0.0
12/06:00am 14.0 8.0 1.0 41 5.6 S 22 30 12 16 1018.4 1018.2 0.0
12/05:30am 14.3 7.8 0.6 39 5.9 S 24 30 13 16 1017.9 1017.6 0.0
12/05:00am 14.8 8.7 0.6 38 6.1 S 22 28 12 15 1017.5 1017.2 0.0
12/04:30am 15.4 8.9 0.4 36 6.5 S 24 30 13 16 1017.3 1017.0 0.0
12/04:00am 15.4 8.6 0.8 37 6.3 S 26 32 14 17 1017.1 1016.8 0.0
12/03:30am 15.2 8.7 0.6 37 6.3 S 24 30 13 16 1017.2 1016.9 0.0
12/03:00am 14.9 8.8 0.4 37 6.2 S 22 28 12 15 1017.1 1016.8 0.0
12/02:30am 14.2 8.3 -1.0 35 6.3 S 20 22 11 12 1017.1 1016.8 0.0
12/02:00am 14.9 9.2 -0.8 34 6.5 S 19 22 10 12 1017.2 1016.9 0.0
12/01:30am 15.8 9.9 -0.8 32 7.0 S 20 24 11 13 1017.2 1016.9 0.0
12/01:00am 15.8 9.9 -0.8 32 7.0 S 20 24 11 13 1017.0 1016.7 0.0
12/12:30am 16.4 10.1 -1.2 30 7.4 S 22 26 12 14 1017.0 1016.7 0.0
12/12:00am 17.5 11.2 -1.2 28 7.9 S 22 26 12 14 1017.2 1016.9 0.0
 
Date/Time
EST
Temp
°C
App
Temp
°C
Dew
Point
°C
Rel
Hum
%
Delta-T
°C
Wind Press
QNH
hPa
Press
MSL
hPa
Rain since
9am
mm
Dir  Spd
km/h
Gust
km/h
Spd
kts
Gust
kts
11/11:30pm 17.7 11.4 -1.0 28 8.0 S 22 28 12 15 1017.1 1016.8 0.0
11/11:00pm 17.7 11.4 -1.0 28 8.0 S 22 26 12 14 1017.3 1017.0 0.0
11/10:30pm 17.7 11.8 -1.0 28 8.0 S 20 26 11 14 1017.3 1017.0 0.0
11/10:00pm 16.7 11.4 -0.9 30 7.4 S 17 20 9 11 1017.4 1017.1 0.0
11/09:30pm 17.7 12.0 -1.0 28 8.0 S 19 20 10 11 1017.3 1017.0 0.0
11/09:00pm 19.2 13.5 -0.7 26 8.6 SSE 19 22 10 12 1017.2 1016.9 0.0
11/08:30pm 19.0 13.4 0.1 28 8.3 SSE 19 20 10 11 1017.1 1016.8 0.0
11/08:00pm 17.8 12.6 0.0 30 7.7 SSE 17 19 9 10 1016.7 1016.4 0.0
11/07:30pm 19.5 14.0 0.5 28 8.5 SSE 19 19 10 10 1016.4 1016.1 0.0
11/07:00pm 22.3 16.9 1.3 25 9.7 S 19 20 10 11 1016.1 1015.8 0.0
11/06:30pm 24.1 19.2 2.3 24 10.5 SSE 17 22 9 12 1015.8 1015.5 0.0
11/06:00pm 26.2 20.5 2.8 22 11.5 S 22 30 12 16 1015.3 1015.0 0.0
11/05:30pm 27.7 21.3 3.4 21 12.2 S 26 33 14 18 1015.2 1014.9 0.0
11/05:00pm 28.8 23.1 5.0 22 12.4 S 24 33 13 18 1014.9 1014.6 0.0
11/04:30pm 29.0 23.2 4.5 21 12.6 S 24 37 13 20 1014.8 1014.5 0.0
11/04:00pm 29.6 23.5 5.0 21 12.8 S 26 37 14 20 1014.6 1014.3 0.0
11/03:30pm 29.5 23.4 4.9 21 12.8 S 26 37 14 20 1014.6 1014.3 0.0
11/03:00pm 29.8 23.9 5.8 22 12.7 S 26 37 14 20 1014.7 1014.4 0.0
11/02:30pm 29.9 24.1 4.5 20 13.2 S 24 35 13 19 1015.0 1014.7 0.0
11/02:00pm 30.0 23.8 2.3 17 13.8 SSE 24 35 13 19 1015.2 1014.9 0.0
11/01:30pm 29.3 24.2 7.8 26 11.7 SSE 24 33 13 18 1015.6 1015.3 0.0
11/01:00pm 29.7 24.1 7.0 24 12.2 S 26 33 14 18 1016.2 1015.9 0.0
11/12:30pm 28.4 24.4 9.2 30 10.7 SSE 20 32 11 17 1016.7 1016.4 0.0
11/12:00pm 28.2 24.6 9.9 32 10.3 SSE 19 28 10 15 1017.1 1016.8 0.0
11/11:30am 27.8 24.1 10.1 33 10.0 SE 20 28 11 15 1017.4 1017.1 0.0
11/11:00am 26.6 22.4 9.9 35 9.3 SE 22 28 12 15 1017.9 1017.6 0.0

Other formats

Comma delimited format used in spreadsheet applications
http://www.bom.gov.au/fwo/IDQ60801/IDQ60801.94337.axf

JavaScript Object Notation format (JSON) in row-major order
http://www.bom.gov.au/fwo/IDQ60801/IDQ60801.94337.json

Data quality

Most of these data are generated automatically and are frequently updated. Quality checks on data are not normally performed. It is possible for incorrect values to appear. Refer to information at About Latest Weather Observations and please check the disclaimer before using these data.